Detall de PIREP

Printer-friendly versionPDF version

[2013/12/05 08:47:00]
Flight IATA:CT2110
Pilot Number:041
Company ICAO:CAT
Aircraft Type:F28/A
PAX:36
Departing Airport: LEVC
Destination Airport: LEST
Alternate Airport:LEMD
Online: VATSIM
Route:CENTA A33 PRADO UN733 FORNO
Flight Level:FL330
No Slew and time accel
No pause
Crash detect
Detect pilot in Cockpit between each 30 and 45 minutes
08:47 Zero fuel Weight: 56236 Lbs, Fuel Weight: 13805 Lbs
08:47 VATSIM:LEVC 050830Z VRB02KT CAVOK 07/02 Q1028 NOSIG
08:47 VATSIM:LEST 050830Z 09006KT 9999 VCFG NSC 05/03 Q1030 NOSIG
08:47 VOICE CATALONIAN
08:52 Parking Brakes off
08:56 Take-off
08:56 Take off Weight: 69636 Lbs
08:56 Wind: 283º @ 002 Knots Heading: 296º
08:56 POS N39º 29´ 33´´ W000º 29´ 26´´
08:56 Gear Up: 185 Knots
08:56 Flaps:1 at 185 Knots
08:57 Flaps:0 at 205 Knots
09:11 Wind:053º@013 Knots Heading: 300º Ground Speed: 375 Knots Altitude 24947 ft
09:20 TOC
09:20 Fuel Weight: 10800 Lb
09:26 Wind:075º@016 Knots Heading: 298º Ground Speed: 418 Knots Altitude 33464 ft
09:40 TOD
09:40 Fuel Weight: 9456 Lb
09:41 Wind:116º@002 Knots Heading: 305º Ground Speed: 412 Knots Altitude 33139 ft
09:56 Wind:073º@004 Knots Heading: 304º Ground Speed: 264 Knots Altitude 6502 ft
10:05 Flaps:1 at 218 Knots
10:08 Flaps:2 at 220 Knots
10:11 Wind:119º@003 Knots Heading: 333º Ground Speed: 230 Knots Altitude 4061 ft
10:13 Flaps:3 at 192 Knots
10:13 Flaps:4 at 173 Knots
10:14 Gear Down: 176 Knots
10:14 Flaps:5 at 171 Knots
10:16 TouchDown:Rate -138 ft/min Speed: 111 Knots
10:17 VATSIM:LEST 051000Z 10005KT 060V150 9999 VCFG NSC 07/05 Q1031 NOSIG
10:17 Land
10:17 Wind:126º@003 Knots
10:17 Heading: 163º
10:17 Flight Duration: 01:21
10:17 Landing Weight: 63881 Lbs
10:17 POS N42º 54´ 04´´ W008º 25´ 00´´
10:19 Parking brakes on
10:19 Block to Block Duration: 01:27
10:19 Final Fuel: 7570 Lbls
10:19 Spent Fuel: 6234 Lbls
10:19 Flight Length: 430 NM
10:19 TOD Land Length: 165 NM

Exportar CSV

Powered by Drupal - Modified by Danger4k